sensor_id;sensor_type;location;lat;lon;timestamp;P1;durP1;ratioP1;P2;durP2;ratioP2
14381;SDS011;7275;50.328;8.720;2022-08-20T00:00:18;3.13;;;2.47;;
14381;SDS011;7275;50.328;8.720;2022-08-20T00:02:48;3.03;;;2.78;;
14381;SDS011;7275;50.328;8.720;2022-08-20T00:05:19;2.55;;;2.35;;
14381;SDS011;7275;50.328;8.720;2022-08-20T00:07:49;2.92;;;2.63;;
14381;SDS011;7275;50.328;8.720;2022-08-20T00:10:19;2.67;;;2.47;;
14381;SDS011;7275;50.328;8.720;2022-08-20T00:12:48;4.27;;;2.70;;
14381;SDS011;7275;50.328;8.720;2022-08-20T00:15:17;2.65;;;2.45;;
14381;SDS011;7275;50.328;8.720;2022-08-20T00:17:47;2.95;;;2.42;;
14381;SDS011;7275;50.328;8.720;2022-08-20T00:20:16;2.67;;;2.47;;
14381;SDS011;7275;50.328;8.720;2022-08-20T00:22:46;2.77;;;2.40;;
14381;SDS011;7275;50.328;8.720;2022-08-20T00:25:14;2.97;;;2.67;;
14381;SDS011;7275;50.328;8.720;2022-08-20T00:27:44;2.80;;;2.33;;
14381;SDS011;7275;50.328;8.720;2022-08-20T00:30:12;2.67;;;2.30;;
14381;SDS011;7275;50.328;8.720;2022-08-20T00:32:41;2.58;;;2.30;;
14381;SDS011;7275;50.328;8.720;2022-08-20T00:35:10;2.60;;;2.40;;
14381;SDS011;7275;50.328;8.720;2022-08-20T00:37:38;2.58;;;2.28;;
14381;SDS011;7275;50.328;8.720;2022-08-20T00:40:06;2.77;;;2.40;;
14381;SDS011;7275;50.328;8.720;2022-08-20T00:42:50;2.75;;;2.55;;
14381;SDS011;7275;50.328;8.720;2022-08-20T00:45:20;4.18;;;2.30;;
14381;SDS011;7275;50.328;8.720;2022-08-20T00:47:48;2.50;;;2.30;;
14381;SDS011;7275;50.328;8.720;2022-08-20T00:50:23;3.93;;;2.63;;
14381;SDS011;7275;50.328;8.720;2022-08-20T00:52:52;2.47;;;2.27;;
14381;SDS011;7275;50.328;8.720;2022-08-20T00:55:22;2.80;;;2.60;;
14381;SDS011;7275;50.328;8.720;2022-08-20T00:57:59;3.03;;;2.73;;
14381;SDS011;7275;50.328;8.720;2022-08-20T01:00:31;2.73;;;2.50;;
14381;SDS011;7275;50.328;8.720;2022-08-20T01:03:03;3.27;;;2.83;;
14381;SDS011;7275;50.328;8.720;2022-08-20T01:05:34;3.03;;;2.47;;
14381;SDS011;7275;50.328;8.720;2022-08-20T01:08:02;3.47;;;2.53;;
14381;SDS011;7275;50.328;8.720;2022-08-20T01:10:31;2.45;;;2.15;;
14381;SDS011;7275;50.328;8.720;2022-08-20T01:13:03;2.95;;;2.50;;
14381;SDS011;7275;50.328;8.720;2022-08-20T01:15:38;3.83;;;2.33;;
14381;SDS011;7275;50.328;8.720;2022-08-20T01:18:09;2.40;;;2.20;;
14381;SDS011;7275;50.328;8.720;2022-08-20T01:20:40;3.67;;;2.60;;
14381;SDS011;7275;50.328;8.720;2022-08-20T01:23:13;3.30;;;2.95;;
14381;SDS011;7275;50.328;8.720;2022-08-20T01:25:59;3.60;;;2.88;;
14381;SDS011;7275;50.328;8.720;2022-08-20T01:28:33;3.45;;;2.55;;
14381;SDS011;7275;50.328;8.720;2022-08-20T01:31:04;3.00;;;2.70;;
14381;SDS011;7275;50.328;8.720;2022-08-20T01:33:33;2.70;;;2.47;;
14381;SDS011;7275;50.328;8.720;2022-08-20T01:36:01;2.78;;;2.58;;
14381;SDS011;7275;50.328;8.720;2022-08-20T01:38:30;2.90;;;2.60;;
14381;SDS011;7275;50.328;8.720;2022-08-20T01:44:00;2.53;;;2.33;;
14381;SDS011;7275;50.328;8.720;2022-08-20T01:46:30;2.63;;;2.30;;
14381;SDS011;7275;50.328;8.720;2022-08-20T01:49:09;2.70;;;2.50;;
14381;SDS011;7275;50.328;8.720;2022-08-20T01:51:46;3.30;;;2.70;;
14381;SDS011;7275;50.328;8.720;2022-08-20T01:54:15;3.35;;;2.17;;
14381;SDS011;7275;50.328;8.720;2022-08-20T01:56:54;3.17;;;2.65;;
14381;SDS011;7275;50.328;8.720;2022-08-20T01:59:24;2.90;;;2.20;;
14381;SDS011;7275;50.328;8.720;2022-08-20T02:01:52;2.78;;;2.53;;
14381;SDS011;7275;50.328;8.720;2022-08-20T02:04:20;2.55;;;2.33;;
14381;SDS011;7275;50.328;8.720;2022-08-20T02:06:51;2.75;;;2.53;;
14381;SDS011;7275;50.328;8.720;2022-08-20T02:09:22;3.33;;;2.65;;
14381;SDS011;7275;50.328;8.720;2022-08-20T02:11:52;2.67;;;2.47;;
14381;SDS011;7275;50.328;8.720;2022-08-20T02:14:20;2.80;;;2.60;;
14381;SDS011;7275;50.328;8.720;2022-08-20T02:16:48;2.45;;;2.25;;
14381;SDS011;7275;50.328;8.720;2022-08-20T02:19:21;2.40;;;2.20;;
14381;SDS011;7275;50.328;8.720;2022-08-20T02:21:55;2.75;;;2.40;;
14381;SDS011;7275;50.328;8.720;2022-08-20T02:24:26;2.50;;;2.30;;
14381;SDS011;7275;50.328;8.720;2022-08-20T02:26:54;2.70;;;2.30;;
14381;SDS011;7275;50.328;8.720;2022-08-20T02:29:22;2.67;;;2.47;;
14381;SDS011;7275;50.328;8.720;2022-08-20T02:31:51;2.63;;;2.42;;
14381;SDS011;7275;50.328;8.720;2022-08-20T02:34:39;2.70;;;2.37;;
14381;SDS011;7275;50.328;8.720;2022-08-20T02:37:07;2.67;;;2.43;;
14381;SDS011;7275;50.328;8.720;2022-08-20T02:39:35;2.83;;;2.53;;
14381;SDS011;7275;50.328;8.720;2022-08-20T02:42:05;2.40;;;2.20;;
14381;SDS011;7275;50.328;8.720;2022-08-20T02:44:32;2.70;;;2.45;;
14381;SDS011;7275;50.328;8.720;2022-08-20T02:47:00;2.55;;;2.35;;
14381;SDS011;7275;50.328;8.720;2022-08-20T02:49:28;2.90;;;2.60;;
14381;SDS011;7275;50.328;8.720;2022-08-20T02:51:55;3.00;;;2.75;;
14381;SDS011;7275;50.328;8.720;2022-08-20T02:54:23;2.72;;;2.53;;
14381;SDS011;7275;50.328;8.720;2022-08-20T02:56:51;2.72;;;2.53;;
14381;SDS011;7275;50.328;8.720;2022-08-20T02:59:20;3.15;;;2.38;;
14381;SDS011;7275;50.328;8.720;2022-08-20T03:01:47;2.60;;;2.40;;
14381;SDS011;7275;50.328;8.720;2022-08-20T03:04:25;2.67;;;2.47;;
14381;SDS011;7275;50.328;8.720;2022-08-20T03:06:52;2.50;;;2.22;;
14381;SDS011;7275;50.328;8.720;2022-08-20T03:09:20;2.72;;;2.47;;
14381;SDS011;7275;50.328;8.720;2022-08-20T03:11:47;2.97;;;2.72;;
14381;SDS011;7275;50.328;8.720;2022-08-20T03:14:15;2.95;;;2.75;;
14381;SDS011;7275;50.328;8.720;2022-08-20T03:16:44;2.95;;;2.70;;
14381;SDS011;7275;50.328;8.720;2022-08-20T03:19:12;3.33;;;3.03;;
14381;SDS011;7275;50.328;8.720;2022-08-20T03:21:39;2.90;;;2.70;;
14381;SDS011;7275;50.328;8.720;2022-08-20T03:24:07;3.63;;;3.33;;
14381;SDS011;7275;50.328;8.720;2022-08-20T03:26:35;4.05;;;3.75;;
14381;SDS011;7275;50.328;8.720;2022-08-20T03:29:02;4.18;;;3.80;;
14381;SDS011;7275;50.328;8.720;2022-08-20T03:31:30;3.67;;;3.38;;
14381;SDS011;7275;50.328;8.720;2022-08-20T03:33:59;3.47;;;3.17;;
14381;SDS011;7275;50.328;8.720;2022-08-20T03:36:27;3.17;;;2.88;;
14381;SDS011;7275;50.328;8.720;2022-08-20T03:38:56;3.60;;;3.30;;
14381;SDS011;7275;50.328;8.720;2022-08-20T03:41:25;3.13;;;2.92;;
14381;SDS011;7275;50.328;8.720;2022-08-20T03:43:54;3.47;;;3.28;;
14381;SDS011;7275;50.328;8.720;2022-08-20T03:46:21;4.00;;;3.70;;
14381;SDS011;7275;50.328;8.720;2022-08-20T03:48:49;4.35;;;3.95;;
14381;SDS011;7275;50.328;8.720;2022-08-20T03:51:27;4.43;;;4.13;;
14381;SDS011;7275;50.328;8.720;2022-08-20T03:53:55;5.15;;;4.75;;
14381;SDS011;7275;50.328;8.720;2022-08-20T03:56:22;5.35;;;4.90;;
14381;SDS011;7275;50.328;8.720;2022-08-20T03:58:50;5.10;;;4.70;;
14381;SDS011;7275;50.328;8.720;2022-08-20T04:01:18;5.53;;;5.13;;
14381;SDS011;7275;50.328;8.720;2022-08-20T04:04:06;5.90;;;5.40;;
14381;SDS011;7275;50.328;8.720;2022-08-20T04:06:39;4.90;;;4.50;;
14381;SDS011;7275;50.328;8.720;2022-08-20T04:09:07;4.68;;;4.30;;
14381;SDS011;7275;50.328;8.720;2022-08-20T04:11:37;5.25;;;4.75;;
14381;SDS011;7275;50.328;8.720;2022-08-20T04:14:05;5.93;;;5.45;;
14381;SDS011;7275;50.328;8.720;2022-08-20T04:16:34;6.00;;;5.47;;
14381;SDS011;7275;50.328;8.720;2022-08-20T04:19:02;5.80;;;5.30;;
14381;SDS011;7275;50.328;8.720;2022-08-20T04:21:31;6.47;;;5.97;;
14381;SDS011;7275;50.328;8.720;2022-08-20T04:24:02;6.43;;;5.93;;
14381;SDS011;7275;50.328;8.720;2022-08-20T04:26:31;5.80;;;5.40;;
14381;SDS011;7275;50.328;8.720;2022-08-20T04:29:02;6.10;;;5.60;;
14381;SDS011;7275;50.328;8.720;2022-08-20T04:31:30;6.50;;;6.00;;
14381;SDS011;7275;50.328;8.720;2022-08-20T04:33:59;5.77;;;5.37;;
14381;SDS011;7275;50.328;8.720;2022-08-20T04:36:27;5.95;;;5.53;;
14381;SDS011;7275;50.328;8.720;2022-08-20T04:38:55;5.97;;;5.47;;
14381;SDS011;7275;50.328;8.720;2022-08-20T04:41:24;6.20;;;5.70;;
14381;SDS011;7275;50.328;8.720;2022-08-20T04:43:52;6.07;;;5.57;;
14381;SDS011;7275;50.328;8.720;2022-08-20T04:46:21;5.35;;;4.95;;
14381;SDS011;7275;50.328;8.720;2022-08-20T04:48:51;5.30;;;4.90;;
14381;SDS011;7275;50.328;8.720;2022-08-20T04:51:19;5.43;;;5.03;;
14381;SDS011;7275;50.328;8.720;2022-08-20T04:53:48;5.80;;;5.40;;
14381;SDS011;7275;50.328;8.720;2022-08-20T04:56:19;5.50;;;5.10;;
14381;SDS011;7275;50.328;8.720;2022-08-20T04:58:50;6.17;;;5.67;;
14381;SDS011;7275;50.328;8.720;2022-08-20T05:01:19;6.33;;;5.83;;
14381;SDS011;7275;50.328;8.720;2022-08-20T05:03:48;6.07;;;5.57;;
14381;SDS011;7275;50.328;8.720;2022-08-20T05:06:16;6.17;;;5.77;;
14381;SDS011;7275;50.328;8.720;2022-08-20T05:08:44;5.37;;;4.97;;
14381;SDS011;7275;50.328;8.720;2022-08-20T05:11:12;4.83;;;4.43;;
14381;SDS011;7275;50.328;8.720;2022-08-20T05:14:01;5.20;;;4.80;;
14381;SDS011;7275;50.328;8.720;2022-08-20T05:16:30;5.60;;;5.20;;
14381;SDS011;7275;50.328;8.720;2022-08-20T05:19:02;6.83;;;5.77;;
14381;SDS011;7275;50.328;8.720;2022-08-20T05:21:30;6.37;;;5.87;;
14381;SDS011;7275;50.328;8.720;2022-08-20T05:23:57;6.40;;;5.90;;
14381;SDS011;7275;50.328;8.720;2022-08-20T05:26:25;6.57;;;5.93;;
14381;SDS011;7275;50.328;8.720;2022-08-20T05:28:52;5.97;;;5.57;;
14381;SDS011;7275;50.328;8.720;2022-08-20T05:31:25;6.53;;;5.93;;
14381;SDS011;7275;50.328;8.720;2022-08-20T05:33:58;6.87;;;6.37;;
14381;SDS011;7275;50.328;8.720;2022-08-20T05:36:26;7.13;;;6.53;;
14381;SDS011;7275;50.328;8.720;2022-08-20T05:38:53;7.20;;;6.63;;
14381;SDS011;7275;50.328;8.720;2022-08-20T05:41:21;6.07;;;5.67;;
14381;SDS011;7275;50.328;8.720;2022-08-20T05:43:54;6.73;;;6.13;;
14381;SDS011;7275;50.328;8.720;2022-08-20T05:46:22;6.15;;;5.75;;
14381;SDS011;7275;50.328;8.720;2022-08-20T05:48:51;6.30;;;5.90;;
14381;SDS011;7275;50.328;8.720;2022-08-20T05:51:18;5.82;;;5.43;;
14381;SDS011;7275;50.328;8.720;2022-08-20T05:53:47;5.38;;;4.97;;
14381;SDS011;7275;50.328;8.720;2022-08-20T05:56:14;5.50;;;5.10;;
14381;SDS011;7275;50.328;8.720;2022-08-20T05:58:42;5.63;;;5.22;;
14381;SDS011;7275;50.328;8.720;2022-08-20T06:01:09;5.50;;;5.10;;
14381;SDS011;7275;50.328;8.720;2022-08-20T06:03:37;5.22;;;4.82;;
14381;SDS011;7275;50.328;8.720;2022-08-20T06:06:23;5.55;;;5.15;;
14381;SDS011;7275;50.328;8.720;2022-08-20T06:09:10;5.57;;;5.18;;
14381;SDS011;7275;50.328;8.720;2022-08-20T06:11:38;5.28;;;4.88;;
14381;SDS011;7275;50.328;8.720;2022-08-20T06:14:05;5.33;;;4.87;;
14381;SDS011;7275;50.328;8.720;2022-08-20T06:16:33;5.38;;;4.97;;
14381;SDS011;7275;50.328;8.720;2022-08-20T06:19:02;4.80;;;4.40;;
14381;SDS011;7275;50.328;8.720;2022-08-20T06:21:32;4.60;;;4.30;;
14381;SDS011;7275;50.328;8.720;2022-08-20T06:23:59;4.47;;;4.18;;
14381;SDS011;7275;50.328;8.720;2022-08-20T06:26:27;4.93;;;4.53;;
14381;SDS011;7275;50.328;8.720;2022-08-20T06:28:56;4.88;;;4.50;;
14381;SDS011;7275;50.328;8.720;2022-08-20T06:31:24;4.85;;;4.45;;
14381;SDS011;7275;50.328;8.720;2022-08-20T06:33:52;5.15;;;4.75;;
14381;SDS011;7275;50.328;8.720;2022-08-20T06:36:20;5.07;;;4.68;;
14381;SDS011;7275;50.328;8.720;2022-08-20T06:38:49;5.07;;;4.68;;
14381;SDS011;7275;50.328;8.720;2022-08-20T06:41:16;4.80;;;4.40;;
14381;SDS011;7275;50.328;8.720;2022-08-20T06:43:44;4.28;;;3.97;;
14381;SDS011;7275;50.328;8.720;2022-08-20T06:46:11;4.15;;;3.83;;
14381;SDS011;7275;50.328;8.720;2022-08-20T06:48:40;3.95;;;3.65;;
14381;SDS011;7275;50.328;8.720;2022-08-20T06:51:07;3.80;;;3.50;;
14381;SDS011;7275;50.328;8.720;2022-08-20T06:53:35;3.55;;;3.28;;
14381;SDS011;7275;50.328;8.720;2022-08-20T06:56:05;3.42;;;3.22;;
14381;SDS011;7275;50.328;8.720;2022-08-20T06:58:33;3.20;;;3.00;;
14381;SDS011;7275;50.328;8.720;2022-08-20T07:01:03;3.28;;;3.08;;
14381;SDS011;7275;50.328;8.720;2022-08-20T07:03:35;3.40;;;3.20;;
14381;SDS011;7275;50.328;8.720;2022-08-20T07:06:04;3.78;;;3.47;;
14381;SDS011;7275;50.328;8.720;2022-08-20T07:08:33;4.05;;;3.75;;
14381;SDS011;7275;50.328;8.720;2022-08-20T07:11:01;3.60;;;3.40;;
14381;SDS011;7275;50.328;8.720;2022-08-20T07:13:30;3.55;;;3.30;;
14381;SDS011;7275;50.328;8.720;2022-08-20T07:15:58;3.80;;;3.50;;
14381;SDS011;7275;50.328;8.720;2022-08-20T07:18:25;3.72;;;3.50;;
14381;SDS011;7275;50.328;8.720;2022-08-20T07:20:54;3.63;;;3.33;;
14381;SDS011;7275;50.328;8.720;2022-08-20T07:23:23;3.92;;;3.63;;
14381;SDS011;7275;50.328;8.720;2022-08-20T07:25:50;3.55;;;3.35;;
14381;SDS011;7275;50.328;8.720;2022-08-20T07:28:19;3.95;;;3.65;;
14381;SDS011;7275;50.328;8.720;2022-08-20T07:30:51;3.88;;;3.58;;
14381;SDS011;7275;50.328;8.720;2022-08-20T07:33:39;4.55;;;3.70;;
14381;SDS011;7275;50.328;8.720;2022-08-20T07:36:09;4.18;;;3.88;;
14381;SDS011;7275;50.328;8.720;2022-08-20T07:38:38;4.20;;;3.90;;
14381;SDS011;7275;50.328;8.720;2022-08-20T07:41:07;4.22;;;3.83;;
14381;SDS011;7275;50.328;8.720;2022-08-20T07:43:38;3.90;;;3.60;;
14381;SDS011;7275;50.328;8.720;2022-08-20T07:46:08;4.03;;;3.70;;
14381;SDS011;7275;50.328;8.720;2022-08-20T07:48:36;3.92;;;3.63;;
14381;SDS011;7275;50.328;8.720;2022-08-20T07:51:06;3.42;;;3.13;;
14381;SDS011;7275;50.328;8.720;2022-08-20T07:53:36;3.78;;;3.47;;
14381;SDS011;7275;50.328;8.720;2022-08-20T07:56:06;3.25;;;3.05;;
14381;SDS011;7275;50.328;8.720;2022-08-20T07:58:37;3.80;;;3.50;;
14381;SDS011;7275;50.328;8.720;2022-08-20T08:01:08;3.50;;;3.30;;
14381;SDS011;7275;50.328;8.720;2022-08-20T08:03:36;3.53;;;3.25;;
14381;SDS011;7275;50.328;8.720;2022-08-20T08:06:14;3.47;;;3.28;;
14381;SDS011;7275;50.328;8.720;2022-08-20T08:08:55;3.40;;;3.20;;
14381;SDS011;7275;50.328;8.720;2022-08-20T08:11:26;5.43;;;3.30;;
14381;SDS011;7275;50.328;8.720;2022-08-20T08:13:53;3.85;;;3.55;;
14381;SDS011;7275;50.328;8.720;2022-08-20T08:16:22;3.65;;;3.45;;
14381;SDS011;7275;50.328;8.720;2022-08-20T08:18:50;3.67;;;3.45;;
14381;SDS011;7275;50.328;8.720;2022-08-20T08:21:22;3.72;;;3.42;;
14381;SDS011;7275;50.328;8.720;2022-08-20T08:23:51;3.78;;;3.47;;
14381;SDS011;7275;50.328;8.720;2022-08-20T08:26:18;3.80;;;3.50;;
14381;SDS011;7275;50.328;8.720;2022-08-20T08:28:47;3.38;;;3.17;;
14381;SDS011;7275;50.328;8.720;2022-08-20T08:31:14;3.40;;;3.20;;
14381;SDS011;7275;50.328;8.720;2022-08-20T08:33:43;3.15;;;2.95;;
14381;SDS011;7275;50.328;8.720;2022-08-20T08:36:12;3.35;;;3.15;;
14381;SDS011;7275;50.328;8.720;2022-08-20T08:38:42;3.33;;;3.03;;
14381;SDS011;7275;50.328;8.720;2022-08-20T08:41:14;3.30;;;3.10;;
14381;SDS011;7275;50.328;8.720;2022-08-20T08:43:44;3.17;;;2.97;;
14381;SDS011;7275;50.328;8.720;2022-08-20T08:46:17;3.00;;;2.80;;
14381;SDS011;7275;50.328;8.720;2022-08-20T08:48:50;3.42;;;2.90;;
14381;SDS011;7275;50.328;8.720;2022-08-20T08:51:23;3.22;;;3.03;;
14381;SDS011;7275;50.328;8.720;2022-08-20T08:53:56;3.05;;;2.85;;
14381;SDS011;7275;50.328;8.720;2022-08-20T08:56:31;3.63;;;3.33;;
14381;SDS011;7275;50.328;8.720;2022-08-20T08:59:00;3.95;;;3.60;;
14381;SDS011;7275;50.328;8.720;2022-08-20T09:01:30;3.53;;;3.33;;
14381;SDS011;7275;50.328;8.720;2022-08-20T09:04:22;3.55;;;3.25;;
14381;SDS011;7275;50.328;8.720;2022-08-20T09:06:54;3.58;;;3.28;;
14381;SDS011;7275;50.328;8.720;2022-08-20T09:09:23;3.60;;;3.30;;
14381;SDS011;7275;50.328;8.720;2022-08-20T09:11:54;3.00;;;2.80;;
14381;SDS011;7275;50.328;8.720;2022-08-20T09:14:28;2.95;;;2.75;;
14381;SDS011;7275;50.328;8.720;2022-08-20T09:16:55;3.47;;;3.28;;
14381;SDS011;7275;50.328;8.720;2022-08-20T09:19:24;3.13;;;2.92;;
14381;SDS011;7275;50.328;8.720;2022-08-20T09:21:52;2.85;;;2.55;;
14381;SDS011;7275;50.328;8.720;2022-08-20T09:24:19;2.42;;;2.22;;
14381;SDS011;7275;50.328;8.720;2022-08-20T09:26:47;2.72;;;2.35;;
14381;SDS011;7275;50.328;8.720;2022-08-20T09:29:14;4.53;;;2.40;;
14381;SDS011;7275;50.328;8.720;2022-08-20T09:31:43;2.67;;;2.47;;
14381;SDS011;7275;50.328;8.720;2022-08-20T09:34:11;2.20;;;2.10;;
14381;SDS011;7275;50.328;8.720;2022-08-20T09:36:40;2.53;;;1.88;;
14381;SDS011;7275;50.328;8.720;2022-08-20T09:39:08;1.60;;;1.50;;
14381;SDS011;7275;50.328;8.720;2022-08-20T09:41:37;72.85;;;5.80;;
14381;SDS011;7275;50.328;8.720;2022-08-20T09:44:05;1.48;;;1.38;;
14381;SDS011;7275;50.328;8.720;2022-08-20T09:46:32;1.92;;;1.30;;
14381;SDS011;7275;50.328;8.720;2022-08-20T09:48:59;1.48;;;1.13;;
14381;SDS011;7275;50.328;8.720;2022-08-20T09:51:27;1.00;;;1.00;;
14381;SDS011;7275;50.328;8.720;2022-08-20T09:53:56;1.00;;;1.00;;
14381;SDS011;7275;50.328;8.720;2022-08-20T09:56:23;1.20;;;1.10;;
14381;SDS011;7275;50.328;8.720;2022-08-20T09:58:52;2.55;;;1.20;;
14381;SDS011;7275;50.328;8.720;2022-08-20T10:01:27;1.33;;;1.20;;
14381;SDS011;7275;50.328;8.720;2022-08-20T10:03:55;1.42;;;1.33;;
14381;SDS011;7275;50.328;8.720;2022-08-20T10:06:22;2.90;;;1.40;;
14381;SDS011;7275;50.328;8.720;2022-08-20T10:08:50;1.67;;;1.58;;
14381;SDS011;7275;50.328;8.720;2022-08-20T10:11:19;1.90;;;1.80;;
14381;SDS011;7275;50.328;8.720;2022-08-20T10:13:46;1.55;;;1.45;;
14381;SDS011;7275;50.328;8.720;2022-08-20T10:16:14;1.60;;;1.50;;
14381;SDS011;7275;50.328;8.720;2022-08-20T10:18:41;2.22;;;1.45;;
14381;SDS011;7275;50.328;8.720;2022-08-20T10:21:09;3.00;;;1.92;;
14381;SDS011;7275;50.328;8.720;2022-08-20T10:23:37;3.70;;;2.35;;
14381;SDS011;7275;50.328;8.720;2022-08-20T10:26:05;2.40;;;2.20;;
14381;SDS011;7275;50.328;8.720;2022-08-20T10:28:35;2.17;;;2.00;;
14381;SDS011;7275;50.328;8.720;2022-08-20T10:31:04;1.92;;;1.80;;
14381;SDS011;7275;50.328;8.720;2022-08-20T10:33:33;1.58;;;1.48;;
14381;SDS011;7275;50.328;8.720;2022-08-20T10:36:04;1.75;;;1.65;;
14381;SDS011;7275;50.328;8.720;2022-08-20T10:38:33;2.75;;;1.77;;
14381;SDS011;7275;50.328;8.720;2022-08-20T10:41:00;1.95;;;1.80;;
14381;SDS011;7275;50.328;8.720;2022-08-20T10:43:28;1.50;;;1.40;;
14381;SDS011;7275;50.328;8.720;2022-08-20T10:45:57;1.60;;;1.50;;
14381;SDS011;7275;50.328;8.720;2022-08-20T10:48:24;1.50;;;1.40;;
14381;SDS011;7275;50.328;8.720;2022-08-20T10:50:52;1.45;;;1.35;;
14381;SDS011;7275;50.328;8.720;2022-08-20T10:53:20;1.40;;;1.30;;
14381;SDS011;7275;50.328;8.720;2022-08-20T10:55:47;1.33;;;1.23;;
14381;SDS011;7275;50.328;8.720;2022-08-20T10:58:15;1.13;;;1.13;;
14381;SDS011;7275;50.328;8.720;2022-08-20T11:00:45;1.38;;;1.27;;
14381;SDS011;7275;50.328;8.720;2022-08-20T11:03:14;1.10;;;1.10;;
14381;SDS011;7275;50.328;8.720;2022-08-20T11:05:41;1.15;;;1.15;;
14381;SDS011;7275;50.328;8.720;2022-08-20T11:08:09;1.23;;;1.13;;
14381;SDS011;7275;50.328;8.720;2022-08-20T11:10:37;1.83;;;1.10;;
14381;SDS011;7275;50.328;8.720;2022-08-20T11:13:06;1.17;;;1.10;;
14381;SDS011;7275;50.328;8.720;2022-08-20T11:15:35;1.10;;;1.10;;
14381;SDS011;7275;50.328;8.720;2022-08-20T11:18:04;1.15;;;1.15;;
14381;SDS011;7275;50.328;8.720;2022-08-20T11:20:33;1.17;;;1.17;;
14381;SDS011;7275;50.328;8.720;2022-08-20T11:23:01;1.20;;;1.20;;
14381;SDS011;7275;50.328;8.720;2022-08-20T11:25:29;1.20;;;1.20;;
14381;SDS011;7275;50.328;8.720;2022-08-20T11:27:57;1.30;;;1.20;;
14381;SDS011;7275;50.328;8.720;2022-08-20T11:30:26;1.33;;;1.23;;
14381;SDS011;7275;50.328;8.720;2022-08-20T11:32:55;1.42;;;1.10;;
14381;SDS011;7275;50.328;8.720;2022-08-20T11:35:24;1.40;;;1.30;;
14381;SDS011;7275;50.328;8.720;2022-08-20T11:38:15;1.30;;;1.20;;
14381;SDS011;7275;50.328;8.720;2022-08-20T11:40:42;1.40;;;1.30;;
14381;SDS011;7275;50.328;8.720;2022-08-20T11:43:11;1.50;;;1.40;;
14381;SDS011;7275;50.328;8.720;2022-08-20T11:45:42;1.13;;;1.10;;
14381;SDS011;7275;50.328;8.720;2022-08-20T11:48:10;1.30;;;1.20;;
14381;SDS011;7275;50.328;8.720;2022-08-20T11:50:37;1.00;;;1.00;;
14381;SDS011;7275;50.328;8.720;2022-08-20T11:53:05;1.00;;;1.00;;
14381;SDS011;7275;50.328;8.720;2022-08-20T11:55:34;1.10;;;1.00;;
14381;SDS011;7275;50.328;8.720;2022-08-20T11:58:04;0.80;;;0.80;;
14381;SDS011;7275;50.328;8.720;2022-08-20T12:00:32;1.25;;;0.90;;
14381;SDS011;7275;50.328;8.720;2022-08-20T12:03:02;0.98;;;0.82;;
14381;SDS011;7275;50.328;8.720;2022-08-20T12:05:34;0.90;;;0.90;;
14381;SDS011;7275;50.328;8.720;2022-08-20T12:08:03;1.00;;;1.00;;
14381;SDS011;7275;50.328;8.720;2022-08-20T12:10:30;1.00;;;1.00;;
14381;SDS011;7275;50.328;8.720;2022-08-20T12:13:00;1.00;;;1.00;;
14381;SDS011;7275;50.328;8.720;2022-08-20T12:15:30;1.15;;;1.05;;
14381;SDS011;7275;50.328;8.720;2022-08-20T12:17:57;0.70;;;0.70;;
14381;SDS011;7275;50.328;8.720;2022-08-20T12:20:25;4.22;;;0.70;;
14381;SDS011;7275;50.328;8.720;2022-08-20T12:22:53;1.67;;;0.90;;
14381;SDS011;7275;50.328;8.720;2022-08-20T12:25:21;6.00;;;1.13;;
14381;SDS011;7275;50.328;8.720;2022-08-20T12:27:48;0.80;;;0.80;;
14381;SDS011;7275;50.328;8.720;2022-08-20T12:30:18;1.00;;;0.90;;
14381;SDS011;7275;50.328;8.720;2022-08-20T12:32:47;0.80;;;0.80;;
14381;SDS011;7275;50.328;8.720;2022-08-20T12:35:16;0.80;;;0.80;;
14381;SDS011;7275;50.328;8.720;2022-08-20T12:37:45;0.80;;;0.80;;
14381;SDS011;7275;50.328;8.720;2022-08-20T12:40:13;0.80;;;0.80;;
14381;SDS011;7275;50.328;8.720;2022-08-20T12:42:57;0.80;;;0.80;;
14381;SDS011;7275;50.328;8.720;2022-08-20T12:45:27;0.80;;;0.80;;
14381;SDS011;7275;50.328;8.720;2022-08-20T12:47:59;0.80;;;0.80;;
14381;SDS011;7275;50.328;8.720;2022-08-20T12:50:28;0.80;;;0.80;;
14381;SDS011;7275;50.328;8.720;2022-08-20T12:52:57;0.80;;;0.80;;
14381;SDS011;7275;50.328;8.720;2022-08-20T12:55:25;1.45;;;0.90;;
14381;SDS011;7275;50.328;8.720;2022-08-20T12:57:53;0.73;;;0.73;;
14381;SDS011;7275;50.328;8.720;2022-08-20T13:00:25;1.13;;;0.80;;
14381;SDS011;7275;50.328;8.720;2022-08-20T13:02:57;0.98;;;0.90;;
14381;SDS011;7275;50.328;8.720;2022-08-20T13:05:27;0.80;;;0.80;;
14381;SDS011;7275;50.328;8.720;2022-08-20T13:07:55;1.02;;;0.93;;
14381;SDS011;7275;50.328;8.720;2022-08-20T13:10:25;1.27;;;0.90;;
14381;SDS011;7275;50.328;8.720;2022-08-20T13:12:54;0.88;;;0.88;;
14381;SDS011;7275;50.328;8.720;2022-08-20T13:15:22;0.82;;;0.70;;
14381;SDS011;7275;50.328;8.720;2022-08-20T13:17:52;1.10;;;0.90;;
14381;SDS011;7275;50.328;8.720;2022-08-20T13:20:21;0.90;;;0.90;;
14381;SDS011;7275;50.328;8.720;2022-08-20T13:22:56;1.00;;;1.00;;
14381;SDS011;7275;50.328;8.720;2022-08-20T13:25:24;0.90;;;0.90;;
14381;SDS011;7275;50.328;8.720;2022-08-20T13:27:54;0.98;;;0.98;;
14381;SDS011;7275;50.328;8.720;2022-08-20T13:30:23;1.20;;;1.10;;
14381;SDS011;7275;50.328;8.720;2022-08-20T13:32:52;1.15;;;1.05;;
14381;SDS011;7275;50.328;8.720;2022-08-20T13:35:20;1.27;;;1.13;;
14381;SDS011;7275;50.328;8.720;2022-08-20T13:37:48;1.38;;;1.20;;
14381;SDS011;7275;50.328;8.720;2022-08-20T13:40:16;1.58;;;1.30;;
14381;SDS011;7275;50.328;8.720;2022-08-20T13:42:44;1.05;;;1.05;;
14381;SDS011;7275;50.328;8.720;2022-08-20T13:45:12;1.35;;;1.10;;
14381;SDS011;7275;50.328;8.720;2022-08-20T13:47:40;1.15;;;1.05;;
14381;SDS011;7275;50.328;8.720;2022-08-20T13:50:11;1.42;;;1.33;;
14381;SDS011;7275;50.328;8.720;2022-08-20T13:52:41;1.35;;;1.25;;
14381;SDS011;7275;50.328;8.720;2022-08-20T13:55:12;1.33;;;1.23;;
14381;SDS011;7275;50.328;8.720;2022-08-20T13:57:42;1.40;;;1.30;;
14381;SDS011;7275;50.328;8.720;2022-08-20T14:00:12;1.50;;;1.40;;
14381;SDS011;7275;50.328;8.720;2022-08-20T14:02:41;2.10;;;1.25;;
14381;SDS011;7275;50.328;8.720;2022-08-20T14:05:10;3.10;;;1.30;;
14381;SDS011;7275;50.328;8.720;2022-08-20T14:07:44;0.98;;;0.98;;
14381;SDS011;7275;50.328;8.720;2022-08-20T14:10:13;1.30;;;1.20;;
14381;SDS011;7275;50.328;8.720;2022-08-20T14:12:42;1.40;;;1.30;;
14381;SDS011;7275;50.328;8.720;2022-08-20T14:15:10;1.40;;;1.30;;
14381;SDS011;7275;50.328;8.720;2022-08-20T14:17:39;2.17;;;1.33;;
14381;SDS011;7275;50.328;8.720;2022-08-20T14:20:09;1.42;;;1.33;;
14381;SDS011;7275;50.328;8.720;2022-08-20T14:22:40;1.35;;;1.25;;
14381;SDS011;7275;50.328;8.720;2022-08-20T14:25:09;1.33;;;1.23;;
14381;SDS011;7275;50.328;8.720;2022-08-20T14:27:38;1.63;;;1.23;;
14381;SDS011;7275;50.328;8.720;2022-08-20T14:30:07;2.08;;;1.27;;
14381;SDS011;7275;50.328;8.720;2022-08-20T14:32:36;1.35;;;1.20;;
14381;SDS011;7275;50.328;8.720;2022-08-20T14:35:05;1.30;;;1.20;;
14381;SDS011;7275;50.328;8.720;2022-08-20T14:37:36;1.40;;;1.30;;
14381;SDS011;7275;50.328;8.720;2022-08-20T14:40:05;1.35;;;1.25;;
14381;SDS011;7275;50.328;8.720;2022-08-20T14:42:35;1.50;;;1.40;;
14381;SDS011;7275;50.328;8.720;2022-08-20T14:45:04;1.45;;;1.27;;
14381;SDS011;7275;50.328;8.720;2022-08-20T14:47:35;1.40;;;1.30;;
14381;SDS011;7275;50.328;8.720;2022-08-20T14:50:05;2.03;;;1.30;;
14381;SDS011;7275;50.328;8.720;2022-08-20T14:52:37;1.40;;;1.30;;
14381;SDS011;7275;50.328;8.720;2022-08-20T14:55:07;1.23;;;1.20;;
14381;SDS011;7275;50.328;8.720;2022-08-20T14:57:40;1.45;;;1.35;;
14381;SDS011;7275;50.328;8.720;2022-08-20T15:00:10;1.40;;;1.30;;
14381;SDS011;7275;50.328;8.720;2022-08-20T15:02:39;1.30;;;1.20;;
14381;SDS011;7275;50.328;8.720;2022-08-20T15:05:07;1.40;;;1.30;;
14381;SDS011;7275;50.328;8.720;2022-08-20T15:07:37;1.60;;;1.30;;
14381;SDS011;7275;50.328;8.720;2022-08-20T15:10:07;1.73;;;1.30;;
14381;SDS011;7275;50.328;8.720;2022-08-20T15:12:36;1.33;;;1.23;;
14381;SDS011;7275;50.328;8.720;2022-08-20T15:15:09;1.45;;;1.35;;
14381;SDS011;7275;50.328;8.720;2022-08-20T15:17:42;1.27;;;1.20;;